Flight Track Log - Related Links

Times and Time Zones

All times are in EDT time to prevent confusion due to time zone crossing. See the KAP444 flight status page for this flight to view local times or setup timezone preferences in your user account.

Time Position Orientation Groundspeed Altitude Reporting Facility
EDT Latitude Longitude Course Direction KTS MPH feet Rate Location/Type
Sun 06:39:08 PM 41.0500 -73.6667 90° East 118 136 2,200  Level New York TRACON
Sun 06:40:08 PM 41.0500 -73.6167 90° East 135 155 3,100 900 Climbing New York TRACON
Sun 06:41:08 PM 41.0500 -73.5667 90° East 135 155 4,000 900 Climbing New York TRACON
Sun 06:42:08 PM 41.0667 -73.5167 66° East 137 158 4,900 750 Climbing New York TRACON
Sun 06:43:08 PM 41.0667 -73.4667 90° East 142 163 5,500 300 Climbing New York TRACON
Sun 06:44:08 PM 41.0667 -73.4000 90° East 177 204 5,500  Level New York TRACON
Sun 06:45:08 PM 41.0833 -73.3333 72° East 183 211 5,500  Level New York TRACON
Sun 06:46:08 PM 41.0833 -73.2833 90° East 182 209 5,500  Level New York TRACON
Sun 06:47:08 PM 41.1000 -73.2167 72° East 182 209 5,500  Level New York TRACON
Sun 06:48:08 PM 41.1000 -73.1500 90° East 181 208 5,500  Level New York TRACON
Sun 06:49:08 PM 41.1167 -73.0833 72° East 183 211 5,500  Level New York TRACON
Sun 06:50:08 PM 41.1167 -73.0167 90° East 183 211 5,500  Level New York TRACON
Sun 06:51:08 PM 41.1333 -72.9500 72° East 183 211 5,500  Level New York TRACON
Sun 06:52:08 PM 41.1333 -72.8833 90° East 181 208 5,500  Level New York TRACON
Sun 06:53:08 PM 41.1333 -72.8167 90° East 179 206 5,500  Level New York TRACON
Sun 06:54:08 PM 41.1500 -72.7500 72° East 178 205 5,500  Level New York TRACON
Sun 06:55:08 PM 41.1500 -72.6833 90° East 180 207 5,500  Level New York TRACON
Sun 06:56:08 PM 41.1667 -72.6167 72° East 181 208 5,500  Level New York TRACON
Sun 06:57:08 PM 41.1833 -72.5500 72° East 181 208 5,500  Level New York TRACON
Sun 06:58:08 PM 41.1833 -72.4833 90° East 184 212 5,500  Level New York TRACON
Sun 06:59:08 PM 41.2000 -72.4167 72° East 182 209 5,500  Level New York TRACON
Sun 07:00:08 PM 41.2000 -72.3667 90° East 185 213 5,500  Level New York TRACON
Sun 07:01:08 PM 41.2000 -72.3000 90° East 184 212 5,500  Level New York TRACON
Sun 07:01:36 PM 41.2081 -72.2636 74° East 187 215 5,500  Level Boston Center
Sun 07:02:36 PM 41.2122 -72.1972 85° East 184 212 5,500  Level Boston Center
Sun 07:03:43 PM 41.2225 -72.1228 80° East 180 207 5,500  Level Boston Center
Sun 07:04:38 PM 41.2264 -72.0647 85° East 181 208 5,500  Level Boston Center
Sun 07:05:26 PM 41.2283 -72.0094 87° East 185 213 5,500  Level Boston Center
Sun 07:06:27 PM 41.2322 -71.9406 86° East 183 211 5,500  Level Boston Center
Sun 07:07:34 PM 41.2381 -71.8686 84° East 182 209 5,500  Level Boston Center
Sun 07:08:34 PM 41.2522 -71.7994 75° East 181 208 5,500  Level Boston Center
Sun 07:09:35 PM 41.2625 -71.7331 78° East 181 208 5,500  Level Boston Center
Sun 07:10:36 PM 41.2725 -71.6694 78° East 182 209 5,500  Level Boston Center
Sun 07:11:36 PM 41.2761 -71.6033 86° East 182 209 5,500  Level Boston Center
Sun 07:12:37 PM 41.2839 -71.5369 81° East 182 209 5,500  Level Boston Center
Sun 07:13:32 PM 41.2897 -71.4758 83° East 182 209 5,500  Level Boston Center
Sun 07:14:33 PM 41.2994 -71.4067 79° East 184 212 5,500  Level Boston Center
Sun 07:15:27 PM 41.3072 -71.3486 80° East 188 216 5,500 -52 Level Boston Center
Sun 07:16:28 PM 41.3169 -71.2875 78° East 179 206 5,400 -98 Descending Boston Center
Sun 07:18:00 PM 41.3310 -71.1980 78° East  Level FlightAware Approximate
Sun 07:25:00 PM 41.3737 -70.7842 79° East  Level FlightAware Approximate
Sun 07:26:00 PM 41.3821 -70.7255 79° East  Level FlightAware Approximate
Sun 07:27:00 PM 41.3834 -70.6660 90° East  Level FlightAware Approximate
Sun 07:28:00 PM 41.3833 -70.6063 90° East  Level FlightAware Approximate
Sun 07:29:00 PM 41.3833 -70.6000 90° East  Level FlightAware Approximate
Sun 07:30:00 PM 41.3934 -70.6139 90° East  Level Estimated
Sun 07:31:00 PM 41.3934 -70.6139 90° East  Level Estimated
Sun 07:32:00 PM 41.3934 -70.6139 90° East  Level Estimated
Sun 07:33:00 PM 41.3934 -70.6139 90° East  Level Estimated
Sun 07:34:00 PM 41.3934 -70.6139 90° East  Level Estimated
Sun 07:35:00 PM 41.3934 -70.6139 90° East  Level Estimated
Sun 07:36:00 PM 41.3934 -70.6139 90° East  Level Estimated
Sun 07:37:00 PM 41.3934 -70.6139 90° East  Level Estimated
Sun 07:38:00 PM 41.3934 -70.6139 90° East  Level Estimated
Sun 07:39:00 PM 41.3934 -70.6139 90° East  Level Estimated
Sun 07:40:00 PM 41.3934 -70.6139 90° East  Level Estimated
Sun 07:41:00 PM 41.3934 -70.6139 90° East  Level Estimated
Sun 07:42:00 PM 41.3934 -70.6139 90° East  Level Estimated
Sun 07:43:00 PM 41.3934 -70.6139 90° East  Level Estimated
Sun 07:44:00 PM 41.3934 -70.6139 90° East  Level Estimated
Sun 07:45:00 PM 41.3934 -70.6139 90° East  Level Estimated
Sun 07:46:00 PM 41.3934 -70.6139 90° East  Level Estimated
Sun 07:47:00 PM 41.3934 -70.6139 90° East  Level Estimated

Login

Don't have an account? Register now (free) for customized features, flight alerts, and more!